Time;durP1;ratioP1;P1;durP2;ratioP2;P2;SDS_P1;SDS_P2;PMS_P1;PMS_P2;Temp;Humidity;BMP_temperature;BMP_pressure;BME280_temperature;BME280_humidity;BME280_pressure;Samples;Min_cycle;Max_cycle;Signal;HPM_P1;HPM_P2
2021/04/13 00:01:36;;;;;;;11.70;3.70;;;;;;;2.28;85.41;101284.79;115982;1204;23148;-58
2021/04/13 00:04:14;;;;;;;16.85;5.05;;;;;;;2.21;85.44;101284.83;114600;1205;25929;-58
2021/04/13 00:06:48;;;;;;;14.25;4.95;;;;;;;2.17;85.26;101284.02;114787;1205;26009;-58
2021/04/13 00:09:20;;;;;;;12.50;4.90;;;;;;;2.14;85.05;101284.83;114716;1199;25978;-58
2021/04/13 00:11:52;;;;;;;12.80;4.47;;;;;;;2.09;85.00;101287.97;114791;1204;26230;-58
2021/04/13 00:14:26;;;;;;;15.10;4.50;;;;;;;2.05;85.29;101283.67;114876;1203;26249;-58
2021/04/13 00:16:58;;;;;;;13.90;3.95;;;;;;;2.02;85.40;101285.25;115086;1205;23260;-58
2021/04/13 00:19:38;;;;;;;13.15;4.05;;;;;;;2.00;85.17;101279.34;114918;1200;23112;-58
2021/04/13 00:22:07;;;;;;;14.30;4.40;;;;;;;1.99;85.29;101283.27;114801;1200;23278;-57
2021/04/13 00:24:36;;;;;;;14.53;5.50;;;;;;;2.00;85.35;101281.31;114759;1203;23166;-60
2021/04/13 00:27:06;;;;;;;15.80;5.40;;;;;;;2.01;85.53;101291.13;114763;1205;23132;-55
2021/04/13 00:29:35;;;;;;;15.55;5.65;;;;;;;2.02;85.61;101282.49;114805;1205;23250;-56
2021/04/13 00:32:06;;;;;;;14.40;5.90;;;;;;;2.04;85.60;101279.33;114671;1206;24390;-57
2021/04/13 00:34:43;;;;;;;15.30;4.75;;;;;;;2.04;85.64;101285.64;114828;1200;23108;-56
2021/04/13 00:37:21;;;;;;;17.90;6.00;;;;;;;2.06;85.52;101286.03;114729;1205;23115;-56
2021/04/13 00:39:50;;;;;;;15.05;5.30;;;;;;;2.06;85.58;101277.77;115085;1202;27236;-56
2021/04/13 00:42:27;;;;;;;18.27;6.93;;;;;;;2.09;85.66;101282.46;115165;1201;23128;-56
2021/04/13 00:45:04;;;;;;;18.17;6.77;;;;;;;2.11;85.81;101291.12;115138;1202;23096;-56
2021/04/13 00:47:37;;;;;;;17.13;6.27;;;;;;;2.13;85.91;101283.23;115027;1200;23141;-57
2021/04/13 00:50:11;;;;;;;14.20;6.10;;;;;;;2.13;85.97;101280.48;114997;1202;23122;-55
2021/04/13 00:52:44;;;;;;;21.47;5.90;;;;;;;2.15;85.91;101280.11;115087;1202;23095;-56
2021/04/13 00:55:16;;;;;;;20.25;8.20;;;;;;;2.16;85.82;101285.22;115194;1201;27355;-53
2021/04/13 00:57:48;;;;;;;20.60;7.70;;;;;;;2.18;85.90;101287.56;115167;1201;23095;-53
2021/04/13 01:00:22;;;;;;;19.60;7.50;;;;;;;2.20;86.09;101285.20;115003;1202;26191;-56
2021/04/13 01:02:58;;;;;;;20.90;8.70;;;;;;;2.21;86.02;101289.55;114768;1202;24756;-54
2021/04/13 01:05:37;;;;;;;22.67;9.50;;;;;;;2.25;85.76;101282.05;115118;1202;23099;-55
2021/04/13 01:08:30;;;;;;;23.85;9.20;;;;;;;2.28;85.83;101286.75;115205;1202;27330;-57
2021/04/13 01:11:03;;;;;;;22.00;8.65;;;;;;;2.31;85.96;101294.23;115072;1202;28248;-56
2021/04/13 01:13:44;;;;;;;20.00;8.13;;;;;;;2.33;85.60;101292.66;115164;1202;23269;-55
2021/04/13 01:16:13;;;;;;;22.35;8.30;;;;;;;2.34;85.40;101296.18;115133;1202;23102;-56
2021/04/13 01:18:48;;;;;;;22.15;8.30;;;;;;;2.35;85.38;101293.05;115088;1202;23164;-57
2021/04/13 01:21:33;;;;;;;20.15;8.10;;;;;;;2.37;85.32;101293.44;115177;1202;26035;-56
2021/04/13 01:24:09;;;;;;;19.80;8.27;;;;;;;2.38;85.48;101289.48;115050;1202;23099;-54
2021/04/13 01:26:43;;;;;;;21.83;8.83;;;;;;;2.40;85.24;101292.63;114992;1202;23102;-56
2021/04/13 01:29:15;;;;;;;20.10;9.40;;;;;;;2.42;85.25;101292.25;115179;1202;26936;-55
2021/04/13 01:31:50;;;;;;;20.50;7.80;;;;;;;2.40;85.17;101292.63;115182;1203;27451;-55
2021/04/13 01:34:25;;;;;;;19.90;8.27;;;;;;;2.42;85.23;101290.25;115098;1202;23240;-55
2021/04/13 01:37:14;;;;;;;21.70;9.00;;;;;;;2.45;85.37;101288.68;115202;1202;23098;-57
2021/04/13 01:39:50;;;;;;;21.00;8.73;;;;;;;2.46;85.26;101296.55;115160;1202;23124;-54
2021/04/13 01:42:21;;;;;;;21.10;8.95;;;;;;;2.48;85.48;101290.66;115084;1200;27352;-55
2021/04/13 01:44:54;;;;;;;22.05;9.00;;;;;;;2.52;85.13;101293.39;115212;1200;23240;-57
2021/04/13 01:47:26;;;;;;;19.95;8.55;;;;;;;2.54;85.28;101291.81;115171;1202;23109;-54
2021/04/13 01:49:58;;;;;;;20.30;9.20;;;;;;;2.55;85.21;101287.86;115174;1203;25974;-55
2021/04/13 01:52:31;;;;;;;23.97;9.50;;;;;;;2.56;85.29;101294.16;115090;1202;23241;-55
2021/04/13 01:55:05;;;;;;;19.10;7.90;;;;;;;2.57;85.36;101301.23;115214;1202;23112;-58
2021/04/13 01:57:44;;;;;;;19.60;8.03;;;;;;;2.56;85.01;101303.22;115034;1202;23196;-57
2021/04/13 02:00:22;;;;;;;22.50;10.25;;;;;;;2.57;85.40;101303.98;115062;1200;23132;-57
2021/04/13 02:02:58;;;;;;;23.45;10.35;;;;;;;2.57;85.12;101304.78;115204;1197;23243;-56
2021/04/13 02:05:30;;;;;;;22.37;10.60;;;;;;;2.58;85.13;101297.30;115241;1200;23098;-56
2021/04/13 02:08:06;;;;;;;25.20;10.95;;;;;;;2.59;85.20;101304.41;115259;1201;23250;-57
2021/04/13 02:10:41;;;;;;;24.57;11.03;;;;;;;2.58;85.37;101306.37;115179;1202;23282;-58
2021/04/13 02:13:15;;;;;;;26.77;12.50;;;;;;;2.60;85.21;101311.47;115096;1202;23105;-58
2021/04/13 02:15:56;;;;;;;29.85;11.95;;;;;;;2.60;85.20;101304.00;115169;1202;23121;-59
2021/04/13 02:18:29;;;;;;;29.47;12.07;;;;;;;2.60;85.34;101308.72;115392;1202;23257;-59
2021/04/13 02:20:59;;;;;;;24.70;10.23;;;;;;;2.59;85.00;101318.19;115297;1202;23109;-60
2021/04/13 02:23:33;;;;;;;24.07;10.20;;;;;;;2.57;85.06;101313.05;115077;1198;26009;-60
2021/04/13 02:26:05;;;;;;;21.93;9.67;;;;;;;2.55;84.98;101312.66;115166;1202;23167;-58
2021/04/13 02:28:36;;;;;;;24.90;10.77;;;;;;;2.52;84.68;101318.20;115405;1202;26808;-60
2021/04/13 02:31:10;;;;;;;20.20;7.80;;;;;;;2.45;84.45;101311.52;115213;1203;23240;-59
2021/04/13 02:33:42;;;;;;;17.95;7.20;;;;;;;2.35;84.15;101304.08;115257;1203;23136;-58
2021/04/13 02:36:18;;;;;;;18.97;6.20;;;;;;;2.30;84.28;101311.94;115169;1202;23282;-59
2021/04/13 02:38:51;;;;;;;17.20;6.30;;;;;;;2.27;84.26;101308.03;115138;1198;23132;-57
2021/04/13 02:41:25;;;;;;;18.60;6.50;;;;;;;2.22;84.35;101316.69;115103;1202;26991;-58
2021/04/13 02:43:56;;;;;;;16.83;5.80;;;;;;;2.20;84.41;101313.55;115115;1200;23099;-57
2021/04/13 02:46:30;;;;;;;12.85;4.30;;;;;;;2.17;84.34;101317.08;115154;1202;23099;-58
2021/04/13 02:49:03;;;;;;;13.80;5.00;;;;;;;2.11;84.17;101313.16;115121;1202;23123;-59
2021/04/13 02:51:34;;;;;;;15.13;4.27;;;;;;;2.04;83.85;101318.69;118677;1201;23473;-59
2021/04/13 02:54:06;;;;;;;10.77;3.83;;;;;;;1.99;83.97;101316.32;115649;1200;23116;-58
2021/04/13 02:56:40;;;;;;;13.03;4.10;;;;;;;1.94;83.80;101315.94;115138;1202;23138;-57
2021/04/13 02:59:21;;;;;;;14.40;5.20;;;;;;;1.92;84.12;101316.34;115200;1201;23105;-57
2021/04/13 03:02:00;;;;;;;14.10;4.40;;;;;;;1.87;83.85;101316.72;115185;1201;23119;-58
2021/04/13 03:04:30;;;;;;;14.73;4.60;;;;;;;1.85;84.06;101310.83;115250;1202;27236;-58
2021/04/13 03:07:00;;;;;;;12.95;4.30;;;;;;;1.86;84.07;101312.41;115073;1200;26096;-58
2021/04/13 03:09:34;;;;;;;12.60;4.20;;;;;;;1.84;84.00;101316.73;115164;1201;23374;-54
2021/04/13 03:12:06;;;;;;;12.20;4.05;;;;;;;1.84;84.03;101319.48;115096;1202;23098;-56
2021/04/13 03:14:40;;;;;;;13.60;3.60;;;;;;;1.82;84.27;101310.84;115105;1202;23098;-56
2021/04/13 03:17:12;;;;;;;12.20;4.37;;;;;;;1.82;84.23;101311.59;115223;1202;25894;-55
2021/04/13 03:19:43;;;;;;;15.10;4.40;;;;;;;1.78;84.11;101310.81;115171;1202;23234;-55
2021/04/13 03:22:14;;;;;;;12.30;4.30;;;;;;;1.75;84.02;101319.08;115120;1202;26172;-55
2021/04/13 03:24:46;;;;;;;13.40;4.13;;;;;;;1.75;84.26;101308.07;115628;1164;23327;-56
2021/04/13 03:27:19;;;;;;;13.05;3.80;;;;;;;1.75;84.44;101310.83;115106;1199;24575;-55
2021/04/13 03:29:56;;;;;;;11.53;4.03;;;;;;;1.73;84.35;101313.98;115279;1199;24625;-54
2021/04/13 03:32:30;;;;;;;11.73;4.03;;;;;;;1.73;84.46;101304.92;115303;1200;23262;-57
2021/04/13 03:35:00;;;;;;;12.10;3.60;;;;;;;1.75;84.53;101297.86;115263;1200;23144;-56
2021/04/13 03:37:30;;;;;;;12.90;3.80;;;;;;;1.77;84.43;101301.00;115129;1203;23234;-52
2021/04/13 03:40:05;;;;;;;16.75;5.20;;;;;;;1.79;84.59;101306.10;114888;1203;23144;-55
2021/04/13 03:42:35;;;;;;;12.30;4.53;;;;;;;1.81;84.41;101300.98;114924;1202;23107;-59
2021/04/13 03:45:08;;;;;;;13.70;4.80;;;;;;;1.80;84.44;101305.70;114853;1200;23367;-56
2021/04/13 03:47:40;;;;;;;11.35;3.70;;;;;;;1.80;84.35;101299.43;114828;1203;23121;-56
2021/04/13 03:50:15;;;;;;;13.85;4.15;;;;;;;1.80;84.46;101308.45;114730;1202;23270;-57
2021/04/13 03:52:44;;;;;;;10.50;3.30;;;;;;;1.82;84.28;101302.58;114744;1202;23124;-55
2021/04/13 03:55:19;;;;;;;12.87;3.90;;;;;;;1.82;84.14;101297.83;114763;1202;23129;-54
2021/04/13 03:57:48;;;;;;;14.40;5.20;;;;;;;1.85;84.48;101302.56;114944;1200;23128;-57
2021/04/13 04:00:21;;;;;;;12.90;3.90;;;;;;;1.88;84.24;101310.05;114867;1200;23179;-58
2021/04/13 04:02:50;;;;;;;16.40;3.80;;;;;;;1.91;84.48;101298.23;114900;1202;23221;-54
2021/04/13 04:05:22;;;;;;;15.40;4.80;;;;;;;1.92;84.28;101305.33;114867;1203;23239;-54
2021/04/13 04:07:55;;;;;;;15.15;4.80;;;;;;;1.94;84.22;101300.20;114834;1202;23106;-56
2021/04/13 04:10:45;;;;;;;13.90;4.30;;;;;;;1.97;84.31;101312.38;114893;1202;26101;-54
2021/04/13 04:13:26;;;;;;;15.53;4.28;;;;;;;1.99;84.16;101310.81;114709;1203;23147;-52
2021/04/13 04:16:09;;;;;;;25.43;8.57;;;;;;;2.00;84.49;101306.09;114845;1202;23270;-55
2021/04/13 04:18:41;;;;;;;43.00;17.30;;;;;;;2.02;84.30;101314.75;114806;1202;26308;-56
2021/04/13 04:21:31;;;;;;;38.47;17.73;;;;;;;2.05;84.33;101316.73;114751;1202;23227;-52
2021/04/13 04:24:05;;;;;;;22.58;10.68;;;;;;;2.05;84.62;101309.23;114763;1203;23126;-53
2021/04/13 04:26:41;;;;;;;19.90;8.15;;;;;;;2.06;84.16;101316.33;114846;1200;23263;-55
2021/04/13 04:29:16;;;;;;;16.23;6.43;;;;;;;2.07;84.27;101319.88;114879;1202;24358;-55
2021/04/13 04:31:46;;;;;;;16.50;6.00;;;;;;;2.07;84.30;101315.13;114823;1202;23223;-54
2021/04/13 04:34:40;;;;;;;19.55;6.35;;;;;;;2.09;84.23;101321.02;114936;1202;24752;-53
2021/04/13 04:37:22;;;;;;;18.87;7.17;;;;;;;2.07;84.38;101322.63;114794;1202;23119;-51
2021/04/13 04:40:36;;;;;;;19.80;7.00;;;;;;;2.06;84.06;101332.05;114790;1203;23150;-58
2021/04/13 04:43:08;;;;;;;20.37;7.13;;;;;;;2.10;84.23;101333.63;114568;1205;27230;-59
2021/04/13 04:45:48;;;;;;;20.05;7.25;;;;;;;2.12;84.25;101341.49;114618;1202;23171;-60
2021/04/13 04:48:23;;;;;;;25.60;9.20;;;;;;;2.13;84.28;101340.33;114501;1203;26290;-61
2021/04/13 04:50:53;;;;;;;22.00;8.50;;;;;;;2.13;83.98;101345.83;114677;1201;23230;-61
2021/04/13 04:53:23;;;;;;;19.60;7.17;;;;;;;2.10;83.94;101346.61;114716;1205;26073;-61
2021/04/13 04:55:53;;;;;;;19.13;6.80;;;;;;;2.05;84.24;101347.79;114751;1202;23131;-60
2021/04/13 04:58:22;;;;;;;18.57;6.30;;;;;;;2.02;84.24;101353.31;114676;1205;23162;-58
2021/04/13 05:00:52;;;;;;;18.05;6.25;;;;;;;2.00;84.29;101359.22;114606;1203;26163;-59
2021/04/13 05:03:23;;;;;;;18.70;5.60;;;;;;;1.99;84.24;101354.88;114499;1203;23164;-59
2021/04/13 05:05:51;;;;;;;;;;;;;;;2.00;84.34;101359.22;114412;1209;25003;-58
2021/04/13 05:08:21;;;;;;;16.25;4.60;;;;;;;1.99;84.35;101359.59;114695;1205;21820;-58
2021/04/13 05:10:50;;;;;;;;;;;;;;;1.98;84.56;101353.31;114535;1209;23509;-60
2021/04/13 05:13:20;;;;;;;17.90;7.20;;;;;;;1.97;84.79;101354.48;114872;1203;22885;-57
2021/04/13 05:15:49;;;;;;;15.00;5.90;;;;;;;1.99;85.02;101356.84;114584;1205;23174;-57
2021/04/13 05:18:19;;;;;;;18.25;6.75;;;;;;;2.00;84.83;101364.73;114874;1203;23125;-59
2021/04/13 05:20:48;;;;;;;15.40;6.10;;;;;;;2.02;85.15;101359.61;114866;1200;23134;-58
2021/04/13 05:23:17;;;;;;;17.85;6.40;;;;;;;2.02;84.88;101351.34;114779;1199;23273;-57
2021/04/13 05:25:47;;;;;;;15.93;5.67;;;;;;;2.06;85.04;101351.34;114743;1202;23345;-57
2021/04/13 05:28:17;;;;;;;18.35;7.05;;;;;;;2.09;84.97;101354.08;114695;1202;23127;-59
2021/04/13 05:30:48;;;;;;;21.70;9.40;;;;;;;2.12;85.13;101350.55;114791;1202;23178;-58
2021/04/13 05:33:17;;;;;;;27.55;11.55;;;;;;;2.15;85.07;101348.98;114605;1202;23118;-59
2021/04/13 05:35:46;;;;;;;24.87;10.77;;;;;;;2.18;85.13;101348.97;114904;1202;23127;-58
2021/04/13 05:38:17;;;;;;;21.75;9.50;;;;;;;2.23;85.16;101356.05;115010;1203;23176;-61
2021/04/13 05:40:47;;;;;;;19.10;7.10;;;;;;;2.28;85.39;101352.88;115089;1200;26771;-59
2021/04/13 05:43:18;;;;;;;19.00;7.17;;;;;;;2.31;85.19;101361.16;114948;1202;24753;-59
2021/04/13 05:45:49;;;;;;;20.70;6.40;;;;;;;2.34;85.38;101360.36;115047;1199;23114;-61
2021/04/13 05:48:19;;;;;;;20.37;6.80;;;;;;;2.39;85.20;101356.41;115607;1200;27196;-61
2021/04/13 05:50:49;;;;;;;22.40;8.80;;;;;;;2.44;85.16;101356.02;115279;1200;24600;-59
2021/04/13 05:53:18;;;;;;;21.87;7.20;;;;;;;2.50;85.14;101356.39;114915;1202;23118;-60
2021/04/13 05:55:47;;;;;;;21.40;7.63;;;;;;;2.52;85.07;101352.06;115009;1202;23123;-55
2021/04/13 05:58:20;;;;;;;20.80;7.70;;;;;;;2.54;85.00;101360.72;115163;1200;24789;-60
2021/04/13 06:00:52;;;;;;;23.20;8.07;;;;;;;2.57;84.74;101359.91;115112;1202;25678;-57
2021/04/13 06:03:23;;;;;;;21.73;8.57;;;;;;;2.61;85.04;101368.95;114934;1202;24803;-61
2021/04/13 06:05:56;;;;;;;23.93;8.57;;;;;;;2.64;84.56;101368.17;115871;1200;23115;-60
2021/04/13 06:08:25;;;;;;;21.05;7.55;;;;;;;2.68;84.56;101371.70;114819;1200;23134;-60
2021/04/13 06:10:56;;;;;;;19.70;7.00;;;;;;;2.73;84.63;101367.77;114897;1202;23186;-61
2021/04/13 06:13:26;;;;;;;18.85;6.90;;;;;;;2.76;84.73;101384.29;114684;1200;23110;-61
2021/04/13 06:15:55;;;;;;;20.60;6.28;;;;;;;2.80;84.52;101384.27;114912;1200;23136;-60
2021/04/13 06:18:25;;;;;;;19.15;7.20;;;;;;;2.86;84.70;101393.70;115021;1202;23204;-60
2021/04/13 06:20:54;;;;;;;23.70;7.10;;;;;;;2.90;84.72;101387.00;114918;1202;24896;-59
2021/04/13 06:23:23;;;;;;;19.75;7.90;;;;;;;2.95;84.45;101389.36;114900;1202;26303;-61
2021/04/13 06:25:52;;;;;;;21.60;7.50;;;;;;;3.01;84.70;101386.96;114682;1200;26147;-59
2021/04/13 06:28:21;;;;;;;20.15;7.70;;;;;;;3.04;84.51;101384.18;114995;1202;23178;-61
2021/04/13 06:30:50;;;;;;;24.35;7.90;;;;;;;3.08;84.29;101381.42;115011;1202;23124;-59
2021/04/13 06:33:19;;;;;;;25.45;9.10;;;;;;;3.12;84.37;101380.20;114936;1203;23110;-61
2021/04/13 06:35:48;;;;;;;25.10;8.75;;;;;;;3.15;84.50;101384.93;114926;1199;24752;-59
2021/04/13 06:38:23;;;;;;;22.75;7.85;;;;;;;3.20;84.66;101384.53;114738;1202;23114;-60
2021/04/13 06:41:02;;;;;;;22.85;8.20;;;;;;;3.22;84.54;101387.67;115038;1200;27335;-61
2021/04/13 06:43:50;;;;;;;22.75;7.85;;;;;;;3.24;84.45;101384.50;115024;1200;23529;-61
2021/04/13 06:46:28;;;;;;;19.60;6.20;;;;;;;3.27;84.25;101394.72;114911;1202;27390;-61
2021/04/13 06:49:15;;;;;;;20.73;6.97;;;;;;;3.29;84.36;101401.42;114971;1202;26255;-59
2021/04/13 06:51:54;;;;;;;21.80;7.90;;;;;;;3.33;84.49;101403.39;114800;1201;23122;-58
2021/04/13 06:54:39;;;;;;;22.90;8.60;;;;;;;3.38;84.69;101400.20;114929;1202;23259;-61
2021/04/13 06:57:41;;;;;;;20.75;7.80;;;;;;;3.41;84.44;101399.41;114847;1200;24927;-59
2021/04/13 07:00:35;;;;;;;17.50;6.90;;;;;;;3.43;84.42;101406.10;114693;1205;27521;-61
2021/04/13 07:03:16;;;;;;;21.07;6.67;;;;;;;3.47;84.65;101406.87;114723;1205;26143;-58
2021/04/13 07:05:51;;;;;;;17.90;6.00;;;;;;;3.50;84.36;101402.52;114930;1205;23126;-58
2021/04/13 07:08:29;;;;;;;16.25;5.70;;;;;;;3.53;84.25;101399.73;114874;1205;23131;-60
2021/04/13 07:11:04;;;;;;;17.63;7.00;;;;;;;3.55;83.83;101397.35;114921;1205;23159;-60
2021/04/13 07:13:44;;;;;;;18.15;6.40;;;;;;;3.58;84.34;101396.53;114862;1205;23133;-62
2021/04/13 07:16:21;;;;;;;16.60;6.10;;;;;;;3.62;84.23;101400.05;114906;1206;23160;-59
2021/04/13 07:18:59;;;;;;;18.00;6.10;;;;;;;3.66;84.25;101389.77;114598;1203;23273;-60
2021/04/13 07:21:35;;;;;;;16.35;6.25;;;;;;;3.70;84.19;101385.04;114754;1203;26093;-59
2021/04/13 07:24:15;;;;;;;17.70;7.50;;;;;;;3.76;84.53;101374.34;114823;1206;27362;-59
2021/04/13 07:26:49;;;;;;;18.50;7.70;;;;;;;3.79;83.78;101377.06;114773;1203;23512;-62
2021/04/13 07:29:24;;;;;;;18.80;5.00;;;;;;;3.83;83.55;101388.08;115012;1206;26812;-60
2021/04/13 07:31:59;;;;;;;17.95;5.70;;;;;;;3.84;83.70;101390.45;114794;1202;26010;-61
2021/04/13 07:34:29;;;;;;;13.90;5.20;;;;;;;3.87;83.11;101389.63;114771;1203;23131;-61
2021/04/13 07:37:01;;;;;;;17.80;6.30;;;;;;;3.90;83.24;101394.36;114863;1200;27233;-61
2021/04/13 07:39:31;;;;;;;18.80;6.30;;;;;;;3.93;83.45;101398.30;115064;1203;25875;-60
2021/04/13 07:42:06;;;;;;;18.25;6.70;;;;;;;3.96;83.24;101397.47;115199;1200;23246;-60
2021/04/13 07:44:52;;;;;;;22.35;7.80;;;;;;;3.98;83.37;101401.40;115045;1199;27287;-60
2021/04/13 07:47:38;;;;;;;19.50;8.25;;;;;;;4.00;83.25;101390.73;115038;1202;23120;-60
2021/04/13 07:50:09;;;;;;;19.30;8.43;;;;;;;4.05;83.09;101395.04;115193;1200;23138;-62
2021/04/13 07:52:50;;;;;;;21.67;10.17;;;;;;;4.07;83.12;101387.92;114795;1199;23118;-61
2021/04/13 07:55:23;;;;;;;22.53;9.93;;;;;;;4.10;83.42;101387.09;114848;1202;23244;-60
2021/04/13 07:58:03;;;;;;;23.03;10.13;;;;;;;4.14;83.23;101387.05;114959;1200;23138;-61
2021/04/13 08:00:36;;;;;;;25.03;9.83;;;;;;;4.19;83.36;101394.13;115818;1200;23135;-61
2021/04/13 08:03:17;;;;;;;23.10;9.10;;;;;;;4.23;82.85;101389.34;114943;1198;23176;-59
2021/04/13 08:05:48;;;;;;;27.00;9.45;;;;;;;4.26;82.68;101397.63;116048;1203;23114;-59
2021/04/13 08:08:27;;;;;;;26.05;10.35;;;;;;;4.32;82.86;101404.29;115043;1200;24789;-58
2021/04/13 08:11:10;;;;;;;27.43;10.03;;;;;;;4.37;83.13;101403.84;114948;1202;23184;-60
2021/04/13 08:13:41;;;;;;;21.20;9.40;;;;;;;4.46;82.94;101403.36;115087;1200;23186;-60
2021/04/13 08:16:28;;;;;;;23.43;8.53;;;;;;;4.54;82.84;101402.89;114900;1199;23148;-60
2021/04/13 08:19:22;;;;;;;20.10;8.20;;;;;;;4.65;83.15;101409.11;115020;1201;23321;-60
2021/04/13 08:22:05;;;;;;;21.63;9.33;;;;;;;4.78;83.20;101409.35;114841;1200;23196;-59
2021/04/13 08:24:39;;;;;;;19.70;6.47;;;;;;;4.84;81.84;101407.73;114925;1199;26182;-61
2021/04/13 08:27:45;;;;;;;20.57;8.20;;;;;;;4.84;81.55;101402.96;114740;1202;23138;-60
2021/04/13 08:30:43;;;;;;;21.00;8.20;;;;;;;4.89;82.14;101396.98;114619;1206;23123;-59
2021/04/13 08:33:27;;;;;;;21.80;8.40;;;;;;;4.97;82.20;101399.66;114644;1205;23135;-61
2021/04/13 08:36:13;;;;;;;18.83;8.67;;;;;;;5.05;81.84;101395.63;115027;1204;23130;-60
2021/04/13 08:38:55;;;;;;;20.60;9.73;;;;;;;5.14;81.96;101391.16;114928;1205;26108;-60
2021/04/13 08:41:36;;;;;;;23.27;8.33;;;;;;;5.17;80.90;101390.34;115041;1202;23132;-60
2021/04/13 08:44:26;;;;;;;18.57;8.50;;;;;;;5.23;81.08;101388.69;115084;1202;23269;-59
2021/04/13 08:47:01;;;;;;;24.00;8.80;;;;;;;5.32;81.35;101383.41;115016;1205;23298;-61
2021/04/13 08:49:47;;;;;;;14.93;6.90;;;;;;;5.33;80.16;101384.98;115153;1202;23120;-60
2021/04/13 08:52:35;;;;;;;19.50;6.85;;;;;;;5.38;80.24;101384.51;115018;1202;25275;-60
2021/04/13 08:55:12;;;;;;;17.85;6.50;;;;;;;5.43;80.34;101386.03;115074;1203;23129;-60
2021/04/13 08:57:45;;;;;;;14.20;5.10;;;;;;;5.46;78.94;101387.98;115063;1202;23133;-61
2021/04/13 09:00:45;;;;;;;15.30;5.50;;;;;;;5.44;79.48;101390.39;115028;1206;26768;-61
2021/04/13 09:03:15;;;;;;;16.80;6.30;;;;;;;5.45;79.65;101391.94;114901;1204;24577;-59
2021/04/13 09:06:07;;;;;;;14.00;5.10;;;;;;;5.50;79.20;101383.18;114985;1205;23133;-61
2021/04/13 09:08:49;;;;;;;12.10;4.80;;;;;;;5.57;78.56;101392.16;114966;1202;23182;-61
2021/04/13 09:11:27;;;;;;;17.00;6.67;;;;;;;5.56;78.96;101385.07;115194;1203;24882;-58
2021/04/13 09:14:16;;;;;;;15.73;6.37;;;;;;;5.63;79.08;101382.18;115250;1202;23095;-61
2021/04/13 09:16:58;;;;;;;12.30;5.20;;;;;;;5.71;78.65;101388.42;114854;1200;25962;-61
2021/04/13 09:19:34;;;;;;;14.73;5.67;;;;;;;5.73;77.39;101391.56;115047;1200;26469;-61
2021/04/13 09:22:19;;;;;;;14.35;5.80;;;;;;;5.73;77.34;101384.01;115132;1199;23160;-61
2021/04/13 09:24:55;;;;;;;16.07;5.70;;;;;;;5.74;77.83;101382.81;115120;1202;23321;-59
2021/04/13 09:27:34;;;;;;;13.70;5.90;;;;;;;5.77;77.51;101395.06;114891;1202;27220;-60
2021/04/13 09:30:24;;;;;;;15.87;5.80;;;;;;;5.78;77.81;101384.73;114988;1202;23212;-58
2021/04/13 09:33:12;;;;;;;14.15;4.78;;;;;;;5.84;76.77;101394.17;115182;1200;23128;-60
2021/04/13 09:36:02;;;;;;;10.75;4.15;;;;;;;5.86;76.75;101389.79;115253;1203;23130;-60
2021/04/13 09:39:02;;;;;;;13.23;4.17;;;;;;;5.86;76.35;101392.56;115076;1203;23278;-61
2021/04/13 09:41:51;;;;;;;16.85;4.65;;;;;;;5.88;76.68;101381.05;115006;1200;23147;-59
2021/04/13 09:44:44;;;;;;;13.55;4.50;;;;;;;5.96;77.24;101386.06;115311;1203;23115;-61
2021/04/13 09:47:31;;;;;;;10.60;3.70;;;;;;;6.09;76.90;101378.73;114908;1203;23119;-60
2021/04/13 09:50:14;;;;;;;9.55;3.30;;;;;;;6.23;76.82;101369.38;114818;1202;25990;-62
2021/04/13 09:53:21;;;;;;;10.95;3.90;;;;;;;6.35;75.99;101377.88;114832;1200;23175;-60
2021/04/13 09:56:03;;;;;;;11.70;3.75;;;;;;;6.46;75.97;101372.94;114976;1202;23121;-62
2021/04/13 09:59:03;;;;;;;12.50;3.40;;;;;;;6.49;75.55;101376.86;114925;1199;27345;-61
2021/04/13 10:01:49;;;;;;;13.55;3.60;;;;;;;6.49;75.16;101368.55;114540;1206;23162;-61
2021/04/13 10:04:44;;;;;;;10.05;2.95;;;;;;;6.53;74.95;101358.16;114747;1205;23326;-60
2021/04/13 10:07:22;;;;;;;10.80;3.30;;;;;;;6.55;74.79;101355.75;114607;1205;23144;-61
2021/04/13 10:09:52;;;;;;;12.40;3.40;;;;;;;6.61;74.98;101356.03;114646;1203;26033;-62
2021/04/13 10:12:52;;;;;;;10.95;2.80;;;;;;;6.64;74.71;101344.09;114648;1205;23142;-61
2021/04/13 10:15:53;;;;;;;6.75;2.40;;;;;;;6.77;74.07;101342.23;114518;1203;23151;-61
2021/04/13 10:18:57;;;;;;;10.00;2.85;;;;;;;6.89;74.71;101330.52;114553;1209;23140;-60
2021/04/13 10:22:04;;;;;;;7.50;2.80;;;;;;;7.00;73.20;101336.61;114581;1206;23352;-59
2021/04/13 10:25:02;;;;;;;10.80;3.00;;;;;;;7.02;72.43;101331.41;114570;1205;23169;-62
2021/04/13 10:28:16;;;;;;;8.55;2.05;;;;;;;6.99;71.24;101329.51;114499;1209;23150;-61
2021/04/13 10:31:22;;;;;;;9.80;2.50;;;;;;;7.03;72.25;101332.99;114598;1208;26109;-62
2021/04/13 10:34:21;;;;;;;7.20;2.20;;;;;;;7.11;71.29;101331.63;114782;1206;23155;-62
2021/04/13 10:37:27;;;;;;;6.50;1.80;;;;;;;7.18;70.68;101335.02;114610;1206;23153;-61
2021/04/13 10:40:14;;;;;;;8.10;1.70;;;;;;;7.22;69.26;101332.19;114393;1206;23223;-62
2021/04/13 10:43:26;;;;;;;7.60;2.10;;;;;;;7.27;71.21;101332.45;114254;1206;24861;-62
2021/04/13 10:46:31;;;;;;;5.40;1.80;;;;;;;7.37;69.96;101341.00;114418;1206;23227;-61
2021/04/13 10:49:35;;;;;;;7.90;1.90;;;;;;;7.35;69.93;101330.30;114298;1212;23176;-62
2021/04/13 10:52:36;;;;;;;8.10;1.70;;;;;;;7.41;69.46;101328.56;114205;1209;23161;-61
2021/04/13 10:55:26;;;;;;;9.90;2.00;;;;;;;7.38;67.87;101317.55;114674;1209;23130;-62
2021/04/13 10:58:33;;;;;;;8.70;1.60;;;;;;;7.40;68.89;101318.69;114548;1209;23140;-62
2021/04/13 11:01:47;;;;;;;6.40;1.60;;;;;;;7.45;68.42;101320.17;114551;1208;24788;-62
2021/04/13 11:04:59;;;;;;;8.30;2.00;;;;;;;7.52;68.38;101314.44;116396;1209;23659;-59
2021/04/13 11:08:09;;;;;;;5.25;1.50;;;;;;;7.57;68.65;101309.17;114559;1203;23133;-62
2021/04/13 11:11:01;;;;;;;8.40;1.50;;;;;;;7.65;69.02;101316.12;114532;1206;23152;-62
2021/04/13 11:14:08;;;;;;;4.85;1.60;;;;;;;7.56;66.04;101312.36;114509;1209;23343;-61
2021/04/13 11:17:22;;;;;;;7.00;1.40;;;;;;;7.41;67.20;101308.36;114333;1206;26105;-62
2021/04/13 11:20:13;;;;;;;14.83;1.87;;;;;;;7.34;68.31;101303.75;114462;1202;23153;-62
2021/04/13 11:22:59;;;;;;;5.50;1.60;;;;;;;7.31;68.34;101305.38;115405;1202;23307;-62
2021/04/13 11:26:27;;;;;;;10.95;2.05;;;;;;;7.30;67.55;101311.38;114845;1203;23139;-62
2021/04/13 11:29:29;;;;;;;9.85;1.90;;;;;;;7.22;68.20;101298.86;114665;1206;28310;-60
2021/04/13 11:32:32;;;;;;;8.15;1.70;;;;;;;7.29;68.26;101296.70;114583;1202;23137;-63
2021/04/13 11:35:15;;;;;;;8.50;1.60;;;;;;;7.32;67.25;101298.59;114586;1203;23226;-63
2021/04/13 11:38:00;;;;;;;7.43;1.50;;;;;;;7.37;66.94;101299.33;114600;1208;24951;-63
2021/04/13 11:40:49;;;;;;;6.40;1.33;;;;;;;7.42;67.40;101301.58;114857;1209;23137;-62
2021/04/13 11:43:23;;;;;;;6.95;1.70;;;;;;;7.48;67.63;101305.41;114559;1206;27463;-62
2021/04/13 11:46:02;;;;;;;6.70;1.90;;;;;;;7.49;66.35;101306.98;114660;1208;23220;-62
2021/04/13 11:48:43;;;;;;;7.70;2.00;;;;;;;7.49;66.53;101304.20;114548;1206;23127;-62
2021/04/13 11:51:20;;;;;;;8.15;2.20;;;;;;;7.53;66.27;101296.56;114476;1208;24793;-63
2021/04/13 11:53:51;;;;;;;9.03;1.90;;;;;;;7.59;66.47;101297.61;114401;1205;23130;-62
2021/04/13 11:56:43;;;;;;;4.80;1.40;;;;;;;7.62;65.65;101299.51;114611;1205;26198;-62
2021/04/13 11:59:24;;;;;;;6.15;1.20;;;;;;;7.62;62.85;101293.95;114610;1209;23153;-62
2021/04/13 12:01:57;;;;;;;3.50;0.90;;;;;;;7.60;63.23;101297.17;114539;1208;23145;-62
2021/04/13 12:04:43;;;;;;;5.90;1.20;;;;;;;7.55;62.36;101296.91;114612;1209;23140;-62
2021/04/13 12:07:13;;;;;;;2.90;0.90;;;;;;;7.50;61.42;101286.30;114530;1203;23139;-61
2021/04/13 12:09:48;;;;;;;3.70;1.00;;;;;;;7.46;60.89;101286.39;114615;1203;23279;-62
2021/04/13 12:12:50;;;;;;;7.60;1.20;;;;;;;7.50;62.56;101286.30;114561;1206;23137;-62
2021/04/13 12:15:52;;;;;;;5.10;0.90;;;;;;;7.61;62.36;101270.17;114796;1205;23195;-60